Ashotsk, Armenia

9:42 PM AMT on July 12, 2014 (GMT +0400)
SHIRAK (UDSG) Elev 5000 ft | 40.75 °N, 43.86 °E | Change Station

Current weather conditions updated 42 minutes ago

Scattered Clouds
Scattered Clouds
73 °F
Feels Like 73 °F
N
11
Wind Variable Wind from ENE

Tomorrow is forecast to be Much Cooler than today. Afternoon thunderstorms.

Today
High -- | Low -- °F
--% Chance of Precip.
Yesterday
High -- | Low -- °F
Precip. -- in
5:43 AM 8:37 PM
Full, 100% visible
Pressure 30.01 in
Visibility 6.2 miles
Clouds Few 5000 ft
Scattered Clouds 10000 ft
Dew Point 59 °F
Humidity 61%
Rainfall 0.00 in
Snow Depth Not available.
UV 0 out of 12
Pollen Not available.
Air Quality Not available.
Flu Activity Not available.
METAR UDSG 121700Z 07005MPS 9999 VCTS FEW050CB SCT100 23/15 Q1016 R02/CLRD70 NOSIG

More Conditions Fewer Conditions

Pressure 30.01 in
Visibility 6.2 miles
Clouds Few 5000 ft
Scattered Clouds 10000 ft
Dew Point 59 °F
Humidity 61%
Rainfall 0.00 in
Snow Depth Not available.
UV 0 out of 12
Pollen Not available.
Air Quality Not available.
Flu Activity Not available.
METAR UDSG 121700Z 07005MPS 9999 VCTS FEW050CB SCT100 23/15 Q1016 R02/CLRD70 NOSIG

More Conditions Fewer Conditions

10-Day Weather Forecast

Almanac

Astronomy

Jul. 12, 2014 Rise Set
Actual Time 5:43 AM AMT 8:37 PM AMT
Civil Twilight 5:10 AM AMT 9:10 PM AMT
Nautical Twilight 4:29 AM AMT 9:51 PM AMT
Astronomical Twilight 3:40 AM AMT 10:39 PM AMT
Moon 8:20 PM AMT 5:37 AM AMT
Length of Visible Light 15h 59m
Length of Day
14h 54m
Tomorrow will be 1m 15s shorter.
Full, 100% of the Moon is Illuminated
Today
Full
Jul 18
Last Quarter
Jul 26
New
Aug 3
First Quarter
Aug 10
Full

Today's Extremes

Country Highs Country Lows

Community

WunderPhotos

Upload Photos

1,732,898 photos uploaded!

WunderBlogs® & News

By Dr. Jeff Masters
Director of Meteorology, Weather Underground
By Kari Strenfel
Meteorologist, Weather Underground
By Christopher C. Burt
Weather Historian, Weather Underground
July 12, 2014
July 12, 2014
July 12, 2014

Nearby

Snow Depth

Not available.

Earthquake Activity

City Distance Mag. Time & Date
No recent earthquake activity has been reported nearby.
Minimum magnitude displayed is 2.5.

Coastal Water Temperatures

Place Temperature
No Stations Reporting

Nearby Weather Stations

There are no personal weather stations in this area.